Time;durP1;ratioP1;P1;durP2;ratioP2;P2;SDS_P1;SDS_P2;PMS_P1;PMS_P2;Temp;Humidity;BMP_temperature;BMP_pressure;BME280_temperature;BME280_humidity;BME280_pressure;Samples;Min_cycle;Max_cycle;Signal;HPM_P1;HPM_P2
2022/08/05 00:00:19;;;;;;;4.23;2.20;;;21.80;98.20;;;;;;5070329;28;20223;-64
2022/08/05 00:02:46;;;;;;;9.10;1.93;;;21.70;98.50;;;;;;5071448;28;20270;-65
2022/08/05 00:05:11;;;;;;;4.23;1.87;;;21.70;98.70;;;;;;5071228;28;20575;-65
2022/08/05 00:07:37;;;;;;;3.23;1.93;;;21.60;99.10;;;;;;5071745;28;20415;-64
2022/08/05 00:10:04;;;;;;;4.80;2.20;;;21.60;99.00;;;;;;5071452;28;20177;-64
2022/08/05 00:12:29;;;;;;;4.50;2.40;;;21.60;98.90;;;;;;5070842;28;20177;-65
2022/08/05 00:14:55;;;;;;;4.70;2.27;;;21.60;99.10;;;;;;5070965;28;20534;-65
2022/08/05 00:17:20;;;;;;;5.03;1.90;;;21.70;98.80;;;;;;5071420;28;20215;-64
2022/08/05 00:19:46;;;;;;;6.23;1.90;;;21.70;98.40;;;;;;5058136;28;20187;-65
2022/08/05 00:22:12;;;;;;;2.80;1.73;;;21.70;98.50;;;;;;5070815;28;20197;-64
2022/08/05 00:24:38;;;;;;;6.37;1.70;;;21.70;98.20;;;;;;5060775;28;20174;-64
2022/08/05 00:27:04;;;;;;;6.00;1.63;;;21.60;98.70;;;;;;5057833;28;20272;-64
2022/08/05 00:29:29;;;;;;;4.90;2.40;;;21.60;99.00;;;;;;5050925;28;20543;-64
2022/08/05 00:31:55;;;;;;;10.27;2.10;;;21.60;99.30;;;;;;5060427;28;20182;-64
2022/08/05 00:34:21;;;;;;;4.60;2.20;;;21.50;99.40;;;;;;5071372;28;20711;-64
2022/08/05 00:36:46;;;;;;;5.57;2.83;;;21.40;99.60;;;;;;5071298;28;20173;-64
2022/08/05 00:39:12;;;;;;;5.40;2.20;;;21.40;99.50;;;;;;5071233;28;20210;-64
2022/08/05 00:41:38;;;;;;;2.43;1.40;;;21.40;99.60;;;;;;5070845;28;20649;-65
2022/08/05 00:44:04;;;;;;;4.03;2.00;;;21.30;99.90;;;;;;5057258;28;20205;-64
2022/08/05 00:46:30;;;;;;;5.00;2.13;;;21.30;99.90;;;;;;5070905;28;20181;-64
2022/08/05 00:48:56;;;;;;;4.77;2.40;;;21.20;99.80;;;;;;5070579;28;20416;-65
2022/08/05 00:51:22;;;;;;;14.47;2.40;;;21.20;99.80;;;;;;5070645;28;20679;-64
2022/08/05 00:53:48;;;;;;;3.37;1.63;;;21.10;99.40;;;;;;5059552;28;20926;-64
2022/08/05 00:56:15;;;;;;;3.40;1.53;;;21.10;99.30;;;;;;5061507;28;20450;-64
2022/08/05 00:58:41;;;;;;;2.53;1.73;;;21.10;99.70;;;;;;5036691;28;20452;-64
2022/08/05 01:01:09;;;;;;;5.33;2.03;;;21.10;99.90;;;;;;5051385;28;20430;-64
2022/08/05 01:03:35;;;;;;;5.97;2.20;;;21.10;99.80;;;;;;5071137;28;20412;-64
2022/08/05 01:06:01;;;;;;;10.07;2.43;;;21.10;99.70;;;;;;5070959;28;20911;-64
2022/08/05 01:08:27;;;;;;;4.23;2.40;;;21.10;99.50;;;;;;5071070;28;20457;-64
2022/08/05 01:11:03;;;;;;;5.30;1.80;;;21.10;99.60;;;;;;5073688;28;20996;-64
2022/08/05 01:14:00;;;;;;;7.20;2.10;;;21.10;97.90;;;;;;5074661;28;20184;-64
2022/08/05 01:16:49;;;;;;;4.90;1.87;;;21.30;94.60;;;;;;5018269;28;20801;-64
2022/08/05 01:19:22;;;;;;;2.57;1.53;;;21.40;93.90;;;;;;5048553;28;20492;-64
2022/08/05 01:21:48;;;;;;;3.00;1.37;;;21.60;93.00;;;;;;5073972;28;20553;-64
2022/08/05 01:24:25;;;;;;;5.37;2.03;;;21.60;92.50;;;;;;5073767;28;20495;-64
2022/08/05 01:27:12;;;;;;;2.27;1.30;;;21.70;93.10;;;;;;5074682;28;20169;-64
2022/08/05 01:29:42;;;;;;;2.80;1.57;;;21.70;92.00;;;;;;5074264;28;20415;-64
2022/08/05 01:32:10;;;;;;;3.90;1.90;;;21.70;92.00;;;;;;5073615;28;20423;-64
2022/08/05 01:34:42;;;;;;;4.07;1.90;;;21.90;91.50;;;;;;5074047;28;20415;-64
2022/08/05 01:37:44;;;;;;;5.90;1.40;;;21.90;91.70;;;;;;5073993;28;20418;-65
2022/08/05 01:40:11;;;;;;;3.07;1.97;;;22.00;90.90;;;;;;5060515;28;20817;-64
2022/08/05 01:42:39;;;;;;;10.60;2.10;;;22.10;90.80;;;;;;5068396;28;20554;-64
2022/08/05 01:45:07;;;;;;;5.27;2.53;;;22.20;90.80;;;;;;5065852;28;20443;-64
2022/08/05 01:47:34;;;;;;;3.67;1.80;;;22.30;90.90;;;;;;5073367;28;20846;-64
2022/08/05 01:50:03;;;;;;;5.43;1.97;;;22.40;91.10;;;;;;5073459;28;20413;-64
2022/08/05 01:52:31;;;;;;;3.90;1.90;;;22.40;91.20;;;;;;5072502;28;20457;-65
2022/08/05 01:55:01;;;;;;;3.13;1.53;;;22.30;91.50;;;;;;5067164;28;20443;-64
2022/08/05 01:57:30;;;;;;;4.13;1.80;;;22.40;91.50;;;;;;5044665;28;20424;-65
2022/08/05 01:59:59;;;;;;;4.07;1.80;;;22.40;91.50;;;;;;5067525;28;20954;-64
2022/08/05 02:02:27;;;;;;;3.57;1.43;;;22.40;91.90;;;;;;5054742;28;20970;-64
2022/08/05 02:04:55;;;;;;;2.97;2.00;;;22.40;91.80;;;;;;5058442;28;20809;-64
2022/08/05 02:07:22;;;;;;;3.60;1.90;;;22.40;91.90;;;;;;5061606;28;20498;-64
2022/08/05 02:09:48;;;;;;;3.93;2.23;;;22.40;91.90;;;;;;5073530;28;20430;-64
2022/08/05 02:12:51;;;;;;;5.10;1.90;;;22.40;92.10;;;;;;5072926;28;20419;-64
2022/08/05 02:15:25;;;;;;;2.60;1.70;;;22.30;92.30;;;;;;5047571;28;20862;-64
2022/08/05 02:18:12;;;;;;;7.00;2.00;;;22.20;92.70;;;;;;5073413;28;20525;-64
2022/08/05 02:20:58;;;;;;;2.30;1.40;;;22.20;92.90;;;;;;5071963;28;20480;-64
2022/08/05 02:23:30;;;;;;;6.93;1.40;;;22.20;92.80;;;;;;5071916;28;20411;-64
2022/08/05 02:25:58;;;;;;;3.83;1.83;;;22.20;92.60;;;;;;5069184;28;20967;-64
2022/08/05 02:28:26;;;;;;;3.40;1.63;;;22.20;93.10;;;;;;5053044;28;20435;-64
2022/08/05 02:31:06;;;;;;;7.10;1.90;;;22.10;93.30;;;;;;5067339;28;20411;-64
2022/08/05 02:33:36;;;;;;;17.23;2.17;;;22.10;93.50;;;;;;5072991;28;20407;-64
2022/08/05 02:36:05;;;;;;;5.23;2.27;;;22.00;93.60;;;;;;5072981;28;20790;-64
2022/08/05 02:38:32;;;;;;;2.10;1.20;;;22.00;94.10;;;;;;5072978;28;20411;-64
2022/08/05 02:40:58;;;;;;;5.00;1.93;;;21.90;94.20;;;;;;5072614;28;20400;-65
2022/08/05 02:43:25;;;;;;;4.20;1.80;;;21.80;94.20;;;;;;5061254;28;20919;-64
2022/08/05 02:45:52;;;;;;;3.47;1.93;;;21.70;94.40;;;;;;5070520;28;20420;-64
2022/08/05 02:48:19;;;;;;;11.70;1.57;;;21.70;94.90;;;;;;5072292;28;20415;-64
2022/08/05 02:50:47;;;;;;;10.97;2.03;;;21.60;95.00;;;;;;5072629;28;20411;-64
2022/08/05 02:53:14;;;;;;;6.13;1.63;;;21.60;94.90;;;;;;5065800;28;20466;-64
2022/08/05 02:55:40;;;;;;;6.63;2.60;;;21.50;95.50;;;;;;5057133;28;20882;-65
2022/08/05 02:58:06;;;;;;;14.27;2.17;;;21.50;95.20;;;;;;5060031;28;20912;-64
2022/08/05 03:00:35;;;;;;;9.10;1.97;;;21.40;95.70;;;;;;5071712;28;20432;-64
2022/08/05 03:03:02;;;;;;;3.10;1.70;;;21.40;95.80;;;;;;5072305;28;20208;-64
2022/08/05 03:05:28;;;;;;;3.67;1.90;;;21.30;95.10;;;;;;5054364;28;20423;-64
2022/08/05 03:07:54;;;;;;;2.43;1.47;;;21.30;95.40;;;;;;5072665;28;20403;-65
2022/08/05 03:10:21;;;;;;;4.57;1.80;;;21.30;95.60;;;;;;5072152;28;20637;-64
2022/08/05 03:12:48;;;;;;;6.40;1.97;;;21.20;96.00;;;;;;5071708;28;20423;-64
2022/08/05 03:15:13;;;;;;;2.70;1.50;;;21.20;96.00;;;;;;5071347;28;20514;-65
2022/08/05 03:17:39;;;;;;;4.20;1.90;;;21.20;96.10;;;;;;5072134;28;20511;-64
2022/08/05 03:20:06;;;;;;;7.93;1.83;;;21.10;96.20;;;;;;5072201;28;20314;-64
2022/08/05 03:22:32;;;;;;;4.07;2.17;;;21.00;96.70;;;;;;5059027;28;20198;-64
2022/08/05 03:24:58;;;;;;;4.20;2.20;;;21.00;96.90;;;;;;5057814;28;20880;-64
2022/08/05 03:27:24;;;;;;;2.73;1.47;;;20.90;96.60;;;;;;5071921;28;20415;-64
2022/08/05 03:29:51;;;;;;;3.97;1.90;;;20.90;96.50;;;;;;5071736;28;20437;-65
2022/08/05 03:32:18;;;;;;;12.40;1.93;;;20.90;96.90;;;;;;5058426;28;20495;-64
2022/08/05 03:34:44;;;;;;;2.50;1.10;;;20.80;97.00;;;;;;5065307;28;20448;-64
2022/08/05 03:37:10;;;;;;;4.17;1.67;;;20.70;97.20;;;;;;5064757;28;20798;-64
2022/08/05 03:39:37;;;;;;;5.90;1.57;;;20.70;97.40;;;;;;5071688;28;21299;-64
2022/08/05 03:42:03;;;;;;;3.43;1.60;;;20.60;97.30;;;;;;5046033;28;20202;-64
2022/08/05 03:44:28;;;;;;;3.87;2.10;;;20.60;97.70;;;;;;5051682;28;20470;-64
2022/08/05 03:46:54;;;;;;;5.40;1.83;;;20.50;98.00;;;;;;5064906;28;20536;-64
2022/08/05 03:49:20;;;;;;;4.63;2.07;;;20.50;97.80;;;;;;5044842;28;20656;-64
2022/08/05 03:52:04;;;;;;;5.97;1.87;;;20.40;97.80;;;;;;5071199;28;20681;-64
2022/08/05 03:54:38;;;;;;;4.00;2.10;;;20.40;98.30;;;;;;5063597;28;20177;-64
2022/08/05 03:57:05;;;;;;;9.33;2.37;;;20.40;98.40;;;;;;5054623;28;20768;-64
2022/08/05 03:59:39;;;;;;;3.93;1.80;;;20.40;98.50;;;;;;5060875;28;20409;-64
2022/08/05 04:02:06;;;;;;;3.87;1.70;;;20.40;97.90;;;;;;5064137;28;20779;-64
2022/08/05 04:04:33;;;;;;;4.47;2.17;;;20.50;98.10;;;;;;5051695;28;20507;-64
2022/08/05 04:07:00;;;;;;;5.10;2.03;;;20.50;98.10;;;;;;5070390;28;20815;-64
2022/08/05 04:09:28;;;;;;;7.13;2.33;;;20.50;98.50;;;;;;5071837;28;20439;-64
2022/08/05 04:11:54;;;;;;;3.30;1.90;;;20.50;98.90;;;;;;5070811;28;20572;-64
2022/08/05 04:14:20;;;;;;;4.50;2.40;;;20.50;98.50;;;;;;5071677;28;20468;-64
2022/08/05 04:16:47;;;;;;;8.43;1.90;;;20.40;98.30;;;;;;5070852;28;20800;-64
2022/08/05 04:19:12;;;;;;;6.33;2.27;;;20.40;98.30;;;;;;5071962;28;20181;-64
2022/08/05 04:21:39;;;;;;;4.33;1.97;;;20.40;98.10;;;;;;5071043;28;20508;-64
2022/08/05 04:24:05;;;;;;;4.43;1.87;;;20.40;98.20;;;;;;5070019;28;20538;-64
2022/08/05 04:26:31;;;;;;;3.20;2.00;;;20.50;98.20;;;;;;5068714;28;20419;-64
2022/08/05 04:28:56;;;;;;;7.00;2.60;;;20.60;97.90;;;;;;5052604;28;20459;-64
2022/08/05 04:31:22;;;;;;;5.70;2.33;;;20.60;98.40;;;;;;5069091;28;20177;-64
2022/08/05 04:33:48;;;;;;;13.03;1.67;;;20.60;98.00;;;;;;5058204;28;20719;-64
2022/08/05 04:36:14;;;;;;;4.27;1.73;;;20.70;97.90;;;;;;5042902;28;20177;-64
2022/08/05 04:38:42;;;;;;;8.73;2.97;;;20.60;97.80;;;;;;5071444;28;20177;-64
2022/08/05 04:41:07;;;;;;;13.00;2.40;;;20.70;98.00;;;;;;5070573;28;20453;-64
2022/08/05 04:43:33;;;;;;;4.13;2.00;;;20.60;97.70;;;;;;5058412;28;20412;-65
2022/08/05 04:45:59;;;;;;;3.60;2.03;;;20.60;97.40;;;;;;5059383;28;20177;-64
2022/08/05 04:48:24;;;;;;;8.40;2.77;;;20.50;97.60;;;;;;5074413;28;20569;-64
2022/08/05 04:50:50;;;;;;;5.37;2.10;;;20.50;97.70;;;;;;5074790;28;20794;-64
2022/08/05 04:53:17;;;;;;;7.67;2.23;;;20.50;97.60;;;;;;5067345;28;20185;-65
2022/08/05 04:55:44;;;;;;;4.77;2.03;;;20.40;97.40;;;;;;5073372;28;20217;-64
2022/08/05 04:58:12;;;;;;;3.87;2.00;;;20.40;97.30;;;;;;5070486;28;20434;-64
2022/08/05 05:00:39;;;;;;;4.00;2.37;;;20.40;97.40;;;;;;5047142;28;20776;-64
2022/08/05 05:03:06;;;;;;;5.27;1.70;;;20.40;97.10;;;;;;5061577;28;20460;-64
2022/08/05 05:05:32;;;;;;;18.57;2.00;;;20.50;96.50;;;;;;5074218;28;20411;-64
2022/08/05 05:08:01;;;;;;;3.87;1.87;;;20.60;96.60;;;;;;5074731;28;20494;-64
2022/08/05 05:10:27;;;;;;;2.90;1.67;;;20.60;95.60;;;;;;5041508;28;20495;-63
2022/08/05 05:12:53;;;;;;;7.33;2.33;;;20.80;95.00;;;;;;5054122;28;20435;-64
2022/08/05 05:15:18;;;;;;;6.50;2.13;;;20.90;94.90;;;;;;5060808;28;20466;-64
2022/08/05 05:17:44;;;;;;;3.43;1.97;;;21.00;95.00;;;;;;5034737;28;20264;-65
2022/08/05 05:20:11;;;;;;;8.30;2.80;;;21.20;94.90;;;;;;5061646;28;20543;-64
2022/08/05 05:22:37;;;;;;;5.23;2.23;;;21.30;94.90;;;;;;5058801;28;20637;-64
2022/08/05 05:25:03;;;;;;;5.40;2.00;;;21.40;94.60;;;;;;5040790;28;20429;-64
2022/08/05 05:27:30;;;;;;;3.00;1.40;;;21.50;94.60;;;;;;5060849;28;20181;-65
2022/08/05 05:29:56;;;;;;;3.90;1.47;;;21.50;94.70;;;;;;5060295;28;20421;-64
2022/08/05 05:32:22;;;;;;;4.23;1.83;;;21.60;94.90;;;;;;5046499;28;20435;-65
2022/08/05 05:34:47;;;;;;;7.20;2.33;;;21.60;94.80;;;;;;5074367;28;20189;-65
2022/08/05 05:37:13;;;;;;;3.90;2.07;;;21.70;95.20;;;;;;5060856;28;20178;-65
2022/08/05 05:39:40;;;;;;;4.70;2.10;;;21.70;95.60;;;;;;5060927;28;20180;-65
2022/08/05 05:42:05;;;;;;;16.30;2.23;;;21.80;95.20;;;;;;5072551;28;20784;-64
2022/08/05 05:44:31;;;;;;;4.37;2.33;;;21.80;95.60;;;;;;5061621;28;20944;-64
2022/08/05 05:46:57;;;;;;;5.07;2.30;;;21.90;95.70;;;;;;5073666;28;20180;-65
2022/08/05 05:49:23;;;;;;;4.60;1.90;;;21.90;95.90;;;;;;5068516;28;20205;-64
2022/08/05 05:51:48;;;;;;;6.03;2.60;;;22.00;95.90;;;;;;5067627;28;20458;-64
2022/08/05 05:54:14;;;;;;;5.17;1.90;;;22.00;96.40;;;;;;5066332;28;20204;-64
2022/08/05 05:56:39;;;;;;;7.53;2.43;;;22.10;95.90;;;;;;5055878;28;20178;-64
2022/08/05 05:59:06;;;;;;;5.77;1.97;;;22.20;95.90;;;;;;5073974;28;20177;-65
2022/08/05 06:01:33;;;;;;;4.07;2.10;;;22.30;96.40;;;;;;5072360;28;20199;-64
2022/08/05 06:03:58;;;;;;;5.40;3.00;;;22.40;96.40;;;;;;5073792;28;20812;-65
2022/08/05 06:06:24;;;;;;;4.20;2.40;;;22.60;95.90;;;;;;5073606;28;20419;-64
2022/08/05 06:08:49;;;;;;;7.13;2.43;;;22.70;96.10;;;;;;5073700;28;20177;-64
2022/08/05 06:11:15;;;;;;;8.13;2.93;;;22.80;96.10;;;;;;5073018;28;20231;-65
2022/08/05 06:13:41;;;;;;;6.70;3.77;;;22.90;96.30;;;;;;5052840;28;20227;-64
2022/08/05 06:16:06;;;;;;;5.90;3.13;;;22.90;96.50;;;;;;5048476;28;20231;-64
2022/08/05 06:18:32;;;;;;;4.03;2.67;;;22.90;96.80;;;;;;5072987;28;20173;-65
2022/08/05 06:20:58;;;;;;;16.40;4.17;;;23.00;96.80;;;;;;5065620;28;20631;-64
2022/08/05 06:23:24;;;;;;;7.73;3.30;;;23.00;96.80;;;;;;5048114;28;20200;-64
2022/08/05 06:25:50;;;;;;;6.10;3.33;;;23.10;97.00;;;;;;5054067;28;20772;-64
2022/08/05 06:28:15;;;;;;;15.07;3.10;;;23.10;96.50;;;;;;5070799;28;20527;-64
2022/08/05 06:30:41;;;;;;;11.53;3.50;;;23.10;96.60;;;;;;5072041;28;20411;-64
2022/08/05 06:33:07;;;;;;;8.53;3.50;;;23.20;96.50;;;;;;5043039;28;20173;-64
2022/08/05 06:35:33;;;;;;;4.07;2.90;;;23.20;96.80;;;;;;5054728;28;20180;-64
2022/08/05 06:37:59;;;;;;;10.90;3.13;;;23.20;97.00;;;;;;5072413;28;20423;-65
2022/08/05 06:40:24;;;;;;;8.63;3.43;;;23.30;96.40;;;;;;5072660;28;20194;-64
2022/08/05 06:42:50;;;;;;;13.73;3.23;;;23.40;96.60;;;;;;5065392;28;20274;-64
2022/08/05 06:45:16;;;;;;;6.17;2.70;;;23.40;97.00;;;;;;5065289;28;20183;-64
2022/08/05 06:47:41;;;;;;;7.43;3.13;;;23.40;96.20;;;;;;5071286;28;20184;-64
2022/08/05 06:50:07;;;;;;;4.67;2.10;;;23.50;95.60;;;;;;5072052;28;20177;-64
2022/08/05 06:52:33;;;;;;;6.20;2.97;;;23.60;95.90;;;;;;5066034;28;20188;-66
2022/08/05 06:54:59;;;;;;;6.80;3.13;;;23.70;95.70;;;;;;5043346;28;20425;-66
2022/08/05 06:57:24;;;;;;;8.10;2.03;;;23.70;95.30;;;;;;5060187;28;20537;-65
2022/08/05 06:59:50;;;;;;;6.83;2.83;;;23.90;94.00;;;;;;5047475;28;20186;-66
2022/08/05 07:02:15;;;;;;;4.13;2.40;;;24.00;93.80;;;;;;5044508;28;20196;-65
2022/08/05 07:04:41;;;;;;;3.20;1.93;;;24.20;93.60;;;;;;5053257;28;20628;-65
2022/08/05 07:07:07;;;;;;;7.50;1.70;;;24.30;92.90;;;;;;5059140;28;20177;-65
2022/08/05 07:09:32;;;;;;;4.77;2.07;;;24.60;92.60;;;;;;5071574;28;20647;-65
2022/08/05 07:11:58;;;;;;;2.70;1.47;;;24.80;91.50;;;;;;5033180;28;20193;-65
2022/08/05 07:17:08;;;;;;;4.80;1.70;;;25.00;90.60;;;;;;5057357;28;20195;-65
2022/08/05 07:19:34;;;;;;;3.97;1.90;;;25.00;90.40;;;;;;5049824;28;20422;-65
2022/08/05 07:21:59;;;;;;;3.97;1.90;;;25.10;89.70;;;;;;5070370;28;20196;-66
2022/08/05 07:24:25;;;;;;;4.33;1.33;;;25.20;87.40;;;;;;5070199;28;20952;-65
2022/08/05 07:26:51;;;;;;;2.77;1.33;;;25.40;86.20;;;;;;5070715;28;20877;-65
2022/08/05 07:29:17;;;;;;;3.03;1.23;;;25.70;85.60;;;;;;5069909;28;20181;-65
2022/08/05 07:31:42;;;;;;;2.07;1.27;;;25.90;86.70;;;;;;5064222;28;20193;-65
2022/08/05 07:34:08;;;;;;;2.37;1.03;;;26.10;83.00;;;;;;5067548;28;20208;-65
2022/08/05 07:36:34;;;;;;;3.00;1.57;;;26.30;79.30;;;;;;5053000;28;20212;-65
2022/08/05 07:39:02;;;;;;;2.03;1.17;;;26.40;79.10;;;;;;5069802;28;20181;-67
2022/08/05 07:41:28;;;;;;;2.33;0.97;;;26.90;78.10;;;;;;5069982;28;20438;-66
2022/08/05 07:43:55;;;;;;;2.90;1.10;;;27.50;75.80;;;;;;5058441;28;20624;-67
2022/08/05 07:46:20;;;;;;;3.90;1.77;;;28.20;74.00;;;;;;5049976;28;20209;-67
2022/08/05 07:48:46;;;;;;;6.68;2.03;;;28.70;71.60;;;;;;5046888;28;20201;-68
2022/08/05 07:51:14;;;;;;;2.55;1.15;;;28.90;70.80;;;;;;5030098;28;20186;-68
2022/08/05 07:53:41;;;;;;;2.08;1.00;;;29.20;69.80;;;;;;5048015;28;20272;-68
2022/08/05 07:56:06;;;;;;;2.70;1.50;;;29.60;68.70;;;;;;5067249;28;20184;-66
2022/08/05 07:58:32;;;;;;;2.15;1.05;;;29.70;67.40;;;;;;5064241;28;20204;-67
2022/08/05 08:00:58;;;;;;;4.95;1.50;;;29.60;68.30;;;;;;5068974;28;20211;-68
2022/08/05 08:03:23;;;;;;;2.58;1.13;;;29.60;67.70;;;;;;5066770;28;20262;-67
2022/08/05 08:05:52;;;;;;;2.28;1.30;;;29.50;70.10;;;;;;5064775;28;20679;-67
2022/08/05 08:08:18;;;;;;;2.45;1.30;;;29.80;68.20;;;;;;5056847;28;20212;-67
2022/08/05 08:10:44;;;;;;;16.80;1.17;;;29.80;67.00;;;;;;5068796;28;20176;-67
2022/08/05 08:13:10;;;;;;;6.50;1.15;;;30.20;64.80;;;;;;5069802;28;20180;-67
2022/08/05 08:15:36;;;;;;;3.90;1.50;;;30.00;66.00;;;;;;5030817;28;1109430;-67
2022/08/05 08:18:01;;;;;;;3.35;1.20;;;29.90;66.00;;;;;;5070821;28;20510;-66
2022/08/05 08:20:27;;;;;;;2.67;1.27;;;30.00;66.20;;;;;;5073398;28;20184;-68
2022/08/05 08:22:54;;;;;;;2.58;1.33;;;30.00;66.40;;;;;;5071336;28;20205;-69
2022/08/05 08:25:21;;;;;;;3.78;1.45;;;30.10;65.40;;;;;;5074897;28;20188;-67
2022/08/05 08:27:46;;;;;;;3.10;1.00;;;29.80;67.00;;;;;;5074496;28;20173;-68
2022/08/05 08:30:13;;;;;;;2.63;1.10;;;30.00;65.40;;;;;;5051449;28;20648;-68
2022/08/05 08:32:39;;;;;;;1.92;0.85;;;30.10;66.20;;;;;;5065946;28;20192;-68
2022/08/05 08:35:06;;;;;;;10.05;1.67;;;30.30;66.30;;;;;;5058974;28;20555;-68
2022/08/05 08:37:31;;;;;;;3.55;1.23;;;30.50;64.80;;;;;;5061011;28;20637;-68
2022/08/05 08:39:57;;;;;;;3.13;1.50;;;31.10;63.00;;;;;;5046579;28;20198;-68
2022/08/05 08:42:23;;;;;;;2.75;1.67;;;31.10;63.30;;;;;;5052948;28;20304;-68
2022/08/05 08:44:54;;;;;;;3.58;1.35;;;31.20;64.50;;;;;;5056643;28;20169;-68
2022/08/05 08:47:23;;;;;;;2.75;1.10;;;31.40;62.80;;;;;;5056291;28;20223;-68
2022/08/05 08:49:52;;;;;;;4.15;1.30;;;31.70;62.00;;;;;;5052208;28;20205;-68
2022/08/05 08:52:30;;;;;;;7.10;1.17;;;31.90;60.40;;;;;;5053560;28;20208;-69
2022/08/05 08:54:56;;;;;;;4.38;1.27;;;31.30;62.40;;;;;;5053869;28;20219;-69
2022/08/05 08:57:23;;;;;;;4.57;2.08;;;31.20;62.10;;;;;;5052832;28;20189;-66
2022/08/05 08:59:49;;;;;;;2.38;1.30;;;30.90;62.70;;;;;;5046940;28;20790;-67
2022/08/05 09:02:17;;;;;;;3.25;1.77;;;30.80;62.50;;;;;;5046197;28;20310;-67
2022/08/05 09:04:44;;;;;;;4.40;1.70;;;30.10;64.30;;;;;;5037234;28;20185;-66
2022/08/05 09:07:09;;;;;;;7.53;1.52;;;29.50;64.60;;;;;;5062231;28;20644;-67
2022/08/05 09:09:36;;;;;;;2.78;1.33;;;29.10;67.40;;;;;;5054633;28;20193;-67
2022/08/05 09:12:03;;;;;;;3.00;1.23;;;28.90;68.30;;;;;;5070757;28;20185;-66
2022/08/05 09:14:31;;;;;;;2.47;1.10;;;28.90;67.90;;;;;;5042934;28;20193;-66
2022/08/05 09:16:58;;;;;;;2.50;1.20;;;29.50;65.30;;;;;;5059953;28;20192;-65
2022/08/05 09:19:24;;;;;;;8.90;1.20;;;30.10;63.30;;;;;;5036028;28;20197;-68
2022/08/05 09:21:49;;;;;;;3.15;1.17;;;30.40;61.40;;;;;;5050552;28;20259;-68
2022/08/05 09:24:15;;;;;;;2.90;1.20;;;30.50;61.50;;;;;;5059502;28;20203;-68
2022/08/05 09:26:45;;;;;;;4.25;1.58;;;30.50;63.00;;;;;;5062798;28;20567;-68
2022/08/05 09:29:10;;;;;;;3.13;1.15;;;30.60;62.80;;;;;;5063567;28;20185;-68
2022/08/05 09:31:36;;;;;;;3.80;1.52;;;31.00;60.90;;;;;;5053199;28;20182;-68
2022/08/05 09:34:06;;;;;;;2.38;1.20;;;31.30;60.50;;;;;;5040778;28;20869;-68
2022/08/05 09:36:51;;;;;;;3.25;1.40;;;31.40;60.40;;;;;;5046042;28;20181;-68
2022/08/05 09:39:18;;;;;;;3.00;1.35;;;31.30;59.70;;;;;;5057665;28;20181;-68
2022/08/05 09:41:57;;;;;;;3.83;1.52;;;31.60;59.60;;;;;;5047635;28;20220;-68
2022/08/05 09:44:52;;;;;;;2.58;1.27;;;32.20;57.90;;;;;;5049661;28;20177;-68
2022/08/05 09:47:21;;;;;;;3.03;1.17;;;32.00;57.50;;;;;;5028350;28;20190;-69
2022/08/05 09:49:53;;;;;;;2.63;1.10;;;31.60;59.40;;;;;;5061790;28;20187;-68
2022/08/05 09:52:26;;;;;;;2.40;1.10;;;31.60;58.50;;;;;;5055751;28;20176;-68
2022/08/05 09:55:10;;;;;;;3.00;1.50;;;31.60;59.60;;;;;;5050267;28;20276;-68
2022/08/05 09:57:45;;;;;;;2.72;1.70;;;31.20;58.90;;;;;;5046641;28;20192;-68
2022/08/05 10:00:19;;;;;;;3.25;1.38;;;31.10;58.70;;;;;;5062243;28;20180;-68
2022/08/05 10:02:48;;;;;;;1.90;1.02;;;31.50;58.60;;;;;;5048936;28;20228;-69
2022/08/05 10:05:17;;;;;;;2.00;0.80;;;31.40;59.20;;;;;;5063687;28;20175;-68
2022/08/05 10:07:56;;;;;;;7.65;1.35;;;31.40;59.10;;;;;;5046271;28;20206;-69
2022/08/05 10:10:24;;;;;;;2.80;1.23;;;31.60;59.80;;;;;;5053377;28;20173;-68
2022/08/05 10:12:52;;;;;;;2.65;1.50;;;31.50;60.90;;;;;;5026506;28;20190;-68
2022/08/05 10:15:28;;;;;;;4.25;1.40;;;31.70;59.30;;;;;;5062026;28;20211;-68
2022/08/05 10:18:13;;;;;;;2.70;1.45;;;31.90;60.50;;;;;;5063586;28;20184;-68
2022/08/05 10:20:48;;;;;;;2.55;1.08;;;31.80;59.70;;;;;;5070502;28;20637;-68
2022/08/05 10:23:22;;;;;;;2.38;1.30;;;31.70;58.80;;;;;;5057557;28;20556;-68
2022/08/05 10:25:48;;;;;;;2.33;1.35;;;31.30;59.90;;;;;;5059583;28;20618;-68
2022/08/05 10:28:15;;;;;;;2.95;1.30;;;31.20;61.50;;;;;;5050320;28;20852;-68
2022/08/05 10:30:41;;;;;;;3.33;1.48;;;31.00;60.50;;;;;;5070363;28;20176;-68
2022/08/05 10:33:07;;;;;;;2.38;1.02;;;31.00;59.70;;;;;;5051150;28;20217;-68
2022/08/05 10:35:34;;;;;;;1.65;0.88;;;31.00;59.10;;;;;;5051872;28;20189;-68
2022/08/05 10:38:01;;;;;;;3.55;1.92;;;30.90;59.60;;;;;;5070846;28;20649;-68
2022/08/05 10:40:27;;;;;;;4.15;1.67;;;30.90;63.30;;;;;;5070695;28;20192;-68
2022/08/05 10:42:55;;;;;;;2.85;1.20;;;30.70;59.90;;;;;;5048628;28;20206;-68
2022/08/05 10:45:29;;;;;;;2.10;1.08;;;30.80;58.90;;;;;;5050234;28;20173;-68
2022/08/05 10:47:55;;;;;;;2.20;1.20;;;30.80;58.60;;;;;;5049868;28;20183;-68
2022/08/05 10:50:21;;;;;;;2.78;1.40;;;30.80;60.20;;;;;;5051508;28;20188;-68
2022/08/05 10:52:55;;;;;;;7.07;1.15;;;30.90;62.50;;;;;;5054436;28;20288;-68
2022/08/05 10:55:22;;;;;;;2.97;1.50;;;30.90;60.30;;;;;;5051405;28;20181;-68
2022/08/05 10:58:01;;;;;;;2.83;1.30;;;30.90;59.50;;;;;;5067156;28;20277;-68
2022/08/05 11:00:28;;;;;;;2.28;1.00;;;30.70;60.60;;;;;;5045812;28;20214;-68
2022/08/05 11:03:06;;;;;;;5.95;1.10;;;30.80;60.70;;;;;;5069999;28;20700;-68
2022/08/05 11:05:33;;;;;;;3.75;1.60;;;30.90;61.20;;;;;;5048677;28;20574;-68
2022/08/05 11:08:04;;;;;;;5.85;1.10;;;30.80;60.50;;;;;;5064112;28;20186;-67
2022/08/05 11:10:31;;;;;;;3.90;1.40;;;30.50;61.00;;;;;;5070185;28;20189;-68
2022/08/05 11:12:58;;;;;;;5.40;1.77;;;30.30;61.90;;;;;;5064752;28;20182;-68
2022/08/05 11:15:33;;;;;;;2.83;1.33;;;30.60;60.90;;;;;;5049346;28;20240;-68
2022/08/05 11:18:06;;;;;;;3.40;1.40;;;30.90;62.00;;;;;;5051570;28;20727;-68
2022/08/05 11:20:36;;;;;;;1.92;1.00;;;31.20;61.30;;;;;;5046468;28;20189;-68
2022/08/05 11:23:24;;;;;;;2.28;1.42;;;31.40;59.30;;;;;;5052835;28;20196;-68
2022/08/05 11:26:21;;;;;;;2.30;1.30;;;31.50;59.80;;;;;;5047134;28;20737;-68
2022/08/05 11:28:51;;;;;;;3.88;1.48;;;31.40;59.30;;;;;;5033186;28;20188;-68
2022/08/05 11:31:17;;;;;;;2.90;1.10;;;31.50;59.00;;;;;;5047926;28;20204;-68
2022/08/05 11:33:48;;;;;;;4.78;1.52;;;31.60;59.00;;;;;;5050183;28;20177;-68
2022/08/05 11:36:17;;;;;;;3.20;1.45;;;31.60;58.20;;;;;;5068119;28;20191;-68
2022/08/05 11:38:43;;;;;;;2.33;0.80;;;31.50;57.80;;;;;;5066401;28;20520;-68
2022/08/05 11:41:26;;;;;;;2.67;1.45;;;31.60;57.40;;;;;;5070907;28;20176;-68
2022/08/05 11:43:57;;;;;;;3.70;1.40;;;31.40;58.30;;;;;;5049725;28;20181;-68
2022/08/05 11:46:30;;;;;;;2.45;1.10;;;31.60;56.20;;;;;;5060262;28;20520;-68
2022/08/05 11:48:56;;;;;;;2.75;1.40;;;31.60;58.10;;;;;;5052848;28;20177;-68
2022/08/05 11:51:23;;;;;;;4.53;2.10;;;31.60;57.00;;;;;;5050784;28;20192;-68
2022/08/05 11:53:50;;;;;;;2.58;1.08;;;31.70;56.00;;;;;;5054749;28;20184;-68
2022/08/05 11:56:16;;;;;;;1.90;1.00;;;31.50;56.70;;;;;;5070028;28;20671;-68
2022/08/05 11:58:44;;;;;;;2.30;1.00;;;31.60;56.70;;;;;;5068163;28;20184;-68
2022/08/05 12:01:20;;;;;;;2.33;1.08;;;31.70;57.50;;;;;;5069166;28;20576;-68
2022/08/05 12:03:55;;;;;;;2.70;1.33;;;31.60;57.70;;;;;;5069217;28;20693;-68
2022/08/05 12:06:27;;;;;;;4.63;1.20;;;31.70;57.30;;;;;;5056939;28;20827;-68
2022/08/05 12:08:55;;;;;;;2.75;1.40;;;31.90;56.70;;;;;;5052250;28;20204;-68
2022/08/05 12:11:27;;;;;;;2.20;1.23;;;31.90;57.10;;;;;;5064997;28;20242;-68
2022/08/05 12:13:53;;;;;;;2.47;1.42;;;31.80;57.60;;;;;;5054621;28;20748;-69
2022/08/05 12:16:20;;;;;;;6.32;1.65;;;31.50;59.30;;;;;;5060689;28;20280;-68
2022/08/05 12:18:46;;;;;;;4.97;1.30;;;31.40;59.50;;;;;;5062286;28;20221;-68
2022/08/05 12:21:16;;;;;;;2.88;1.38;;;31.60;59.90;;;;;;5051781;28;20207;-68
2022/08/05 12:24:06;;;;;;;2.55;1.48;;;31.80;58.90;;;;;;5050357;28;20214;-68
2022/08/05 12:26:38;;;;;;;4.05;1.58;;;32.20;58.10;;;;;;5047893;28;20176;-68
2022/08/05 12:29:21;;;;;;;3.55;1.67;;;32.30;57.00;;;;;;5069172;28;20178;-68
2022/08/05 12:31:48;;;;;;;3.47;1.77;;;32.50;57.80;;;;;;5050310;28;20200;-68
2022/08/05 12:34:16;;;;;;;2.47;1.33;;;32.40;58.80;;;;;;5059645;28;20181;-68
2022/08/05 12:36:43;;;;;;;5.32;1.30;;;32.20;58.10;;;;;;5048268;28;20297;-68
2022/08/05 12:39:09;;;;;;;3.47;1.52;;;32.20;58.90;;;;;;5070511;28;20176;-68
2022/08/05 12:41:36;;;;;;;2.60;1.52;;;32.20;58.30;;;;;;5070007;28;20234;-68
2022/08/05 12:44:05;;;;;;;7.07;1.83;;;32.50;57.00;;;;;;5050254;28;20514;-68
2022/08/05 12:46:32;;;;;;;2.80;1.58;;;32.50;58.00;;;;;;5060524;28;20169;-68
2022/08/05 12:48:58;;;;;;;3.30;1.48;;;32.50;56.90;;;;;;5051863;28;20173;-68
2022/08/05 12:51:26;;;;;;;2.95;1.40;;;32.90;56.90;;;;;;5049854;28;20276;-69
2022/08/05 12:53:59;;;;;;;2.42;1.17;;;33.00;58.30;;;;;;5059459;28;20184;-68